Wetterstation Vordersexau
Wetterdaten: Woche 16.03.15 - 22.03.15 (KW12)
Datum Zeit Temp. A. Feuchte A. Luftdruck Regen Wind Richtung Taupunkt Windchill Windben
16.03.2015 00:00 -0,1 C 83 % 1017,5 hPa 0,0 l/m 0,0 km/h O-NO -2,6 C -0,1 C 0,0 km/h
16.03.2015 01:00 -0,3 C 84 % 1017,7 hPa 0,0 l/m 0,0 km/h O-NO -2,7 C -0,3 C 0,0 km/h
16.03.2015 02:00 -0,7 C 84 % 1017,5 hPa 0,0 l/m 0,0 km/h O-NO -3,1 C -0,7 C 0,0 km/h
16.03.2015 03:00 -0,4 C 85 % 1017,6 hPa 0,0 l/m 0,0 km/h O-NO -2,6 C -0,4 C 0,0 km/h
16.03.2015 04:00 0,4 C 85 % 1017,8 hPa 0,0 l/m 0,0 km/h O-NO -1,8 C 0,4 C 0,0 km/h
16.03.2015 05:00 -0,5 C 85 % 1018,0 hPa 0,0 l/m 0,0 km/h O-NO -2,7 C -0,5 C 0,0 km/h
16.03.2015 06:00 -0,5 C 86 % 1018,2 hPa 0,0 l/m 0,0 km/h O-NO -2,5 C -0,5 C 0,0 km/h
16.03.2015 07:00 0,9 C 86 % 1018,8 hPa 0,0 l/m 0,0 km/h O-NO -1,2 C 0,9 C 0,0 km/h
16.03.2015 08:00 3,4 C 86 % 1019,0 hPa 0,0 l/m 0,0 km/h W-NW 1,3 C 3,4 C 0,0 km/h
16.03.2015 09:00 6,3 C 81 % 1018,7 hPa 0,0 l/m 0,0 km/h W-NW 3,3 C 6,3 C 0,0 km/h
16.03.2015 10:00 8,5 C 74 % 1019,0 hPa 0,0 l/m 0,0 km/h N-NO 4,1 C 8,5 C 0,0 km/h
16.03.2015 11:00 13,1 C 62 % 1018,6 hPa 0,0 l/m 0,0 km/h SW 6,0 C 13,1 C 0,0 km/h
16.03.2015 12:00 14,4 C 56 % 1018,8 hPa 0,0 l/m 7,8 km/h W-SW 5,7 C 13,6 C 4,3 km/h
16.03.2015 13:00 17,0 C 52 % 1018,5 hPa 0,0 l/m 0,0 km/h N-NW 7,1 C 17,0 C 0,0 km/h
16.03.2015 14:00 19,6 C 44 % 1018,1 hPa 0,0 l/m 0,0 km/h W-NW 7,0 C 19,6 C 0,0 km/h
16.03.2015 15:00 19,0 C 43 % 1018,3 hPa 0,0 l/m 0,0 km/h W-NW 6,1 C 19,0 C 0,0 km/h
16.03.2015 16:00 13,5 C 53 % 1018,6 hPa 0,0 l/m 3,9 km/h W-NW 4,1 C 13,5 C 2,2 km/h
16.03.2015 17:00 11,9 C 58 % 1019,0 hPa 0,0 l/m 0,0 km/h W-NW 3,9 C 11,9 C 0,0 km/h
16.03.2015 18:00 7,4 C 66 % 1019,4 hPa 0,0 l/m 0,0 km/h W-NW 1,5 C 7,4 C 0,0 km/h
16.03.2015 19:00 5,3 C 74 % 1019,4 hPa 0,0 l/m 0,0 km/h S 1,0 C 5,3 C 0,0 km/h
16.03.2015 20:00 4,1 C 78 % 1019,8 hPa 0,0 l/m 0,0 km/h NO 0,6 C 4,1 C 0,0 km/h
16.03.2015 21:00 3,4 C 81 % 1019,8 hPa 0,0 l/m 0,0 km/h NO 0,5 C 3,4 C 0,0 km/h
16.03.2015 22:00 2,5 C 83 % 1019,6 hPa 0,0 l/m 0,0 km/h O-NO -0,1 C 2,5 C 0,0 km/h
16.03.2015 23:00 1,9 C 84 % 1019,4 hPa 0,0 l/m 0,0 km/h O-NO -0,5 C 1,9 C 0,0 km/h
17.03.2015 00:00 1,3 C 85 % 1019,4 hPa 0,0 l/m 0,0 km/h O-NO -0,9 C 1,3 C 0,0 km/h
17.03.2015 01:00 1,0 C 86 % 1019,5 hPa 0,0 l/m 0,0 km/h O-NO -1,1 C 1,0 C 0,0 km/h
17.03.2015 02:00 0,4 C 86 % 1019,3 hPa 0,0 l/m 0,0 km/h O-NO -1,7 C 0,4 C 0,0 km/h
17.03.2015 03:00 -0,2 C 86 % 1019,3 hPa 0,0 l/m 0,0 km/h O-NO -2,3 C -0,2 C 0,0 km/h
17.03.2015 04:00 -0,4 C 86 % 1019,3 hPa 0,0 l/m 0,0 km/h O-SO -2,4 C -0,4 C 0,0 km/h
17.03.2015 05:00 -0,5 C 86 % 1019,7 hPa 0,0 l/m 0,0 km/h NO -2,5 C -0,5 C 0,0 km/h
17.03.2015 06:00 -0,4 C 86 % 1019,8 hPa 0,0 l/m 0,0 km/h NO -2,4 C -0,4 C 0,0 km/h
17.03.2015 07:00 2,7 C 85 % 1020,0 hPa 0,0 l/m 0,0 km/h NO 0,4 C 2,7 C 0,0 km/h
17.03.2015 08:00 9,8 C 82 % 1020,3 hPa 0,0 l/m 0,0 km/h W 6,9 C 9,8 C 0,0 km/h
17.03.2015 09:00 13,4 C 64 % 1020,2 hPa 0,0 l/m 0,0 km/h SW 6,7 C 13,4 C 0,0 km/h
17.03.2015 10:00 16,8 C 53 % 1020,0 hPa 0,0 l/m 3,9 km/h W 7,2 C 16,8 C 2,2 km/h
17.03.2015 11:00 19,4 C 48 % 1019,5 hPa 0,0 l/m 0,0 km/h W 8,1 C 19,4 C 0,0 km/h
17.03.2015 12:00 18,5 C 48 % 1019,1 hPa 0,0 l/m 0,0 km/h W 7,3 C 18,5 C 0,0 km/h
17.03.2015 13:00 19,3 C 46 % 1018,8 hPa 0,0 l/m 0,0 km/h N 7,4 C 19,3 C 0,0 km/h
17.03.2015 14:00 23,3 C 39 % 1018,5 hPa 0,0 l/m 0,0 km/h N 8,6 C 23,3 C 0,0 km/h
17.03.2015 15:00 23,9 C 38 % 1018,5 hPa 0,0 l/m 0,0 km/h W 8,7 C 23,9 C 0,0 km/h
17.03.2015 16:00 23,9 C 37 % 1018,6 hPa 0,0 l/m 0,0 km/h W-NW 8,3 C 23,9 C 0,0 km/h
17.03.2015 17:00 17,7 C 46 % 1018,9 hPa 0,0 l/m 0,0 km/h W-NW 5,9 C 17,7 C 0,0 km/h
17.03.2015 18:00 11,5 C 58 % 1019,4 hPa 0,0 l/m 0,0 km/h W-NW 3,5 C 11,5 C 0,0 km/h
17.03.2015 19:00 8,9 C 69 % 1019,7 hPa 0,0 l/m 0,0 km/h W-NW 3,5 C 8,9 C 0,0 km/h
17.03.2015 20:00 7,8 C 73 % 1019,9 hPa 0,0 l/m 0,0 km/h W-NW 3,3 C 7,8 C 0,0 km/h
17.03.2015 21:00 6,7 C 78 % 1020,1 hPa 0,0 l/m 0,0 km/h W-NW 3,1 C 6,7 C 0,0 km/h
17.03.2015 22:00 6,1 C 81 % 1020,3 hPa 0,0 l/m 0,0 km/h W-NW 3,1 C 6,1 C 0,0 km/h
17.03.2015 23:00 5,6 C 82 % 1020,6 hPa 0,0 l/m 0,0 km/h S-SW 2,8 C 5,6 C 0,0 km/h
18.03.2015 00:00 5,3 C 83 % 1020,7 hPa 0,0 l/m 0,0 km/h S-SW 2,7 C 5,3 C 0,0 km/h
18.03.2015 01:00 4,9 C 84 % 1020,9 hPa 0,0 l/m 0,0 km/h S-SW 2,4 C 4,9 C 0,0 km/h
18.03.2015 02:00 3,9 C 85 % 1020,9 hPa 0,0 l/m 0,0 km/h S-SW 1,6 C 3,9 C 0,0 km/h
18.03.2015 03:00 3,5 C 85 % 1020,9 hPa 0,0 l/m 0,0 km/h S-SW 1,2 C 3,5 C 0,0 km/h
18.03.2015 04:00 2,9 C 86 % 1021,2 hPa 0,0 l/m 0,0 km/h SO 0,8 C 2,9 C 0,0 km/h
18.03.2015 05:00 3,0 C 86 % 1021,4 hPa 0,0 l/m 0,0 km/h O 0,9 C 3,0 C 0,0 km/h
18.03.2015 06:00 2,6 C 86 % 1021,4 hPa 0,0 l/m 0,0 km/h O 0,5 C 2,6 C 0,0 km/h
18.03.2015 07:00 5,1 C 85 % 1021,8 hPa 0,0 l/m 0,0 km/h SO 2,8 C 5,1 C 0,0 km/h
18.03.2015 08:00 9,6 C 85 % 1021,8 hPa 0,0 l/m 0,0 km/h SO 7,2 C 9,6 C 0,0 km/h
18.03.2015 09:00 12,9 C 72 % 1022,0 hPa 0,0 l/m 0,0 km/h W 8,0 C 12,9 C 0,0 km/h
18.03.2015 10:00 19,1 C 57 % 1022,1 hPa 0,0 l/m 0,0 km/h W-NW 10,4 C 19,1 C 0,0 km/h
18.03.2015 11:00 19,1 C 50 % 1021,8 hPa 0,0 l/m 0,0 km/h N-NO 8,4 C 19,1 C 0,0 km/h
18.03.2015 12:00 20,0 C 47 % 1021,2 hPa 0,0 l/m 0,0 km/h W-NW 8,3 C 20,0 C 0,0 km/h
18.03.2015 13:00 21,4 C 45 % 1020,6 hPa 0,0 l/m 0,0 km/h W 9,0 C 21,4 C 0,0 km/h
18.03.2015 14:00 20,3 C 46 % 1020,3 hPa 0,0 l/m 1,3 km/h W-NW 8,3 C 20,3 C 0,7 km/h
18.03.2015 15:00 20,7 C 46 % 1020,1 hPa 0,0 l/m 0,0 km/h N 8,7 C 20,7 C 0,0 km/h
18.03.2015 16:00 18,9 C 46 % 1019,9 hPa 0,0 l/m 0,0 km/h N-NO 7,0 C 18,9 C 0,0 km/h
18.03.2015 17:00 21,6 C 42 % 1020,2 hPa 0,0 l/m 1,3 km/h N-NO 8,1 C 21,6 C 0,7 km/h
18.03.2015 18:00 12,7 C 58 % 1020,3 hPa 0,0 l/m 0,0 km/h N-NO 4,7 C 12,7 C 0,0 km/h
18.03.2015 19:00 9,6 C 69 % 1020,6 hPa 0,0 l/m 0,0 km/h O 4,2 C 9,6 C 0,0 km/h
18.03.2015 20:00 8,7 C 74 % 1020,6 hPa 0,0 l/m 0,0 km/h O-SO 4,3 C 8,7 C 0,0 km/h
18.03.2015 21:00 7,4 C 77 % 1020,6 hPa 0,0 l/m 0,0 km/h NO 3,6 C 7,4 C 0,0 km/h
18.03.2015 22:00 6,8 C 79 % 1020,6 hPa 0,0 l/m 0,0 km/h NO 3,4 C 6,8 C 0,0 km/h
18.03.2015 23:00 5,9 C 81 % 1020,7 hPa 0,0 l/m 0,0 km/h O-SO 2,9 C 5,9 C 0,0 km/h
19.03.2015 00:00 5,9 C 84 % 1020,6 hPa 0,0 l/m 13,6 km/h O-NO 3,4 C 0,9 C 7,6 km/h
19.03.2015 01:00 3,6 C 83 % 1020,4 hPa 0,0 l/m 0,0 km/h O-NO 1,0 C 3,6 C 0,0 km/h
19.03.2015 02:00 2,6 C 84 % 1020,5 hPa 0,0 l/m 0,0 km/h NO 0,2 C 2,6 C 0,0 km/h
19.03.2015 03:00 2,3 C 85 % 1020,6 hPa 0,0 l/m 0,0 km/h NO 0,0 C 2,3 C 0,0 km/h
19.03.2015 04:00 2,1 C 86 % 1020,8 hPa 0,0 l/m 0,0 km/h NO 0,0 C 2,1 C 0,0 km/h
19.03.2015 05:00 1,9 C 86 % 1020,8 hPa 0,0 l/m 0,0 km/h NO -0,2 C 1,9 C 0,0 km/h
19.03.2015 06:00 1,5 C 86 % 1021,4 hPa 0,0 l/m 0,0 km/h NO -0,6 C 1,5 C 0,0 km/h
19.03.2015 07:00 3,8 C 85 % 1021,6 hPa 0,0 l/m 0,0 km/h NO 1,5 C 3,8 C 0,0 km/h
19.03.2015 08:00 8,1 C 86 % 1021,9 hPa 0,0 l/m 0,0 km/h W-SW 5,9 C 8,1 C 0,0 km/h
19.03.2015 09:00 13,8 C 70 % 1022,1 hPa 0,0 l/m 0,0 km/h S-SW 8,4 C 13,8 C 0,0 km/h
19.03.2015 10:00 14,0 C 69 % 1022,4 hPa 0,0 l/m 0,0 km/h W-NW 8,4 C 14,0 C 0,0 km/h
19.03.2015 11:00 16,9 C 59 % 1022,0 hPa 0,0 l/m 0,0 km/h N-NO 8,8 C 16,9 C 0,0 km/h
19.03.2015 12:00 18,4 C 56 % 1021,5 hPa 0,0 l/m 0,0 km/h NW 9,5 C 18,4 C 0,0 km/h
19.03.2015 13:00 19,8 C 52 % 1020,8 hPa 0,0 l/m 0,0 km/h W 9,7 C 19,8 C 0,0 km/h
19.03.2015 14:00 21,5 C 48 % 1020,0 hPa 0,0 l/m 0,0 km/h W 10,0 C 21,5 C 0,0 km/h
19.03.2015 15:00 20,6 C 49 % 1019,4 hPa 0,0 l/m 18,1 km/h N 9,5 C 17,3 C 10,1 km/h
19.03.2015 16:00 18,1 C 50 % 1019,3 hPa 0,0 l/m 0,0 km/h N-NO 7,5 C 18,1 C 0,0 km/h
19.03.2015 17:00 16,8 C 53 % 1019,5 hPa 0,0 l/m 0,6 km/h N-NO 7,2 C 16,8 C 0,4 km/h
19.03.2015 18:00 11,6 C 62 % 1020,0 hPa 0,0 l/m 0,0 km/h O-NO 4,6 C 11,6 C 0,0 km/h
19.03.2015 19:00 7,8 C 71 % 1020,2 hPa 0,0 l/m 0,0 km/h O 2,9 C 7,8 C 0,0 km/h
19.03.2015 20:00 6,8 C 78 % 1020,5 hPa 0,0 l/m 0,0 km/h SO 3,2 C 6,8 C 0,0 km/h
19.03.2015 21:00 5,9 C 80 % 1020,7 hPa 0,0 l/m 0,0 km/h SO 2,7 C 5,9 C 0,0 km/h
19.03.2015 22:00 4,3 C 81 % 1020,9 hPa 0,0 l/m 0,0 km/h O-SO 1,3 C 4,3 C 0,0 km/h
19.03.2015 23:00 3,1 C 83 % 1020,9 hPa 0,0 l/m 0,0 km/h O-NO 0,5 C 3,1 C 0,0 km/h
20.03.2015 00:00 2,3 C 84 % 1020,9 hPa 0,0 l/m 0,0 km/h O-NO -0,1 C 2,3 C 0,0 km/h
20.03.2015 01:00 1,5 C 85 % 1020,8 hPa 0,0 l/m 0,0 km/h O -0,7 C 1,5 C 0,0 km/h
20.03.2015 02:00 1,1 C 85 % 1020,5 hPa 0,0 l/m 0,0 km/h O-NO -1,1 C 1,1 C 0,0 km/h
20.03.2015 03:00 0,4 C 86 % 1020,3 hPa 0,0 l/m 0,0 km/h NO -1,7 C 0,4 C 0,0 km/h
20.03.2015 04:00 0,7 C 86 % 1020,2 hPa 0,0 l/m 0,0 km/h N-NO -1,4 C 0,7 C 0,0 km/h
20.03.2015 05:00 -0,8 C 86 % 1020,6 hPa 0,0 l/m 0,0 km/h NO -2,8 C -0,8 C 0,0 km/h
20.03.2015 06:00 -0,8 C 86 % 1021,0 hPa 0,0 l/m 0,0 km/h N-NO -2,8 C -0,8 C 0,0 km/h
20.03.2015 07:00 1,0 C 84 % 1020,9 hPa 0,0 l/m 0,0 km/h W-NW -1,4 C 1,0 C 0,0 km/h
20.03.2015 08:00 9,8 C 75 % 1020,9 hPa 0,0 l/m 0,6 km/h W-SW 5,6 C 9,8 C 0,4 km/h
20.03.2015 09:00 11,0 C 69 % 1020,8 hPa 0,0 l/m 0,0 km/h W-SW 5,5 C 11,0 C 0,0 km/h
20.03.2015 10:00 9,0 C 71 % 1020,5 hPa 0,0 l/m 0,0 km/h W 4,0 C 9,0 C 0,0 km/h
20.03.2015 11:00 15,8 C 59 % 1020,1 hPa 0,0 l/m 1,9 km/h W 7,8 C 15,8 C 1,1 km/h
20.03.2015 12:00 17,9 C 53 % 1019,4 hPa 0,0 l/m 0,6 km/h W-NW 8,2 C 17,9 C 0,4 km/h
20.03.2015 13:00 19,2 C 47 % 1018,2 hPa 0,0 l/m 0,0 km/h W-NW 7,6 C 19,2 C 0,0 km/h
20.03.2015 14:00 21,0 C 41 % 1017,4 hPa 0,0 l/m 13,6 km/h W-NW 7,2 C 18,8 C 7,6 km/h
20.03.2015 15:00 21,8 C 38 % 1016,6 hPa 0,0 l/m 11,0 km/h W-NW 6,8 C 20,4 C 6,1 km/h
20.03.2015 16:00 20,4 C 37 % 1016,3 hPa 0,0 l/m 5,2 km/h W-NW 5,2 C 20,4 C 2,9 km/h
20.03.2015 17:00 16,6 C 42 % 1016,2 hPa 0,0 l/m 6,5 km/h O-SO 3,6 C 16,6 C 3,6 km/h
20.03.2015 18:00 10,1 C 56 % 1016,4 hPa 0,0 l/m 0,0 km/h O-SO 1,7 C 10,1 C 0,0 km/h
20.03.2015 19:00 7,2 C 65 % 1016,7 hPa 0,0 l/m 0,0 km/h O-SO 1,1 C 7,2 C 0,0 km/h
20.03.2015 20:00 5,8 C 72 % 1017,0 hPa 0,0 l/m 0,0 km/h O-SO 1,2 C 5,8 C 0,0 km/h
20.03.2015 21:00 4,6 C 75 % 1017,0 hPa 0,0 l/m 0,0 km/h O-NO 0,6 C 4,6 C 0,0 km/h
20.03.2015 22:00 3,8 C 79 % 1016,7 hPa 0,0 l/m 0,0 km/h O-NO 0,5 C 3,8 C 0,0 km/h
20.03.2015 23:00 3,4 C 81 % 1016,4 hPa 0,0 l/m 0,0 km/h O-NO 0,5 C 3,4 C 0,0 km/h
21.03.2015 00:00 2,1 C 82 % 1016,1 hPa 0,0 l/m 0,0 km/h O-NO -0,6 C 2,1 C 0,0 km/h
21.03.2015 01:00 1,9 C 83 % 1015,8 hPa 0,0 l/m 0,0 km/h SO -0,7 C 1,9 C 0,0 km/h
21.03.2015 02:00 1,6 C 84 % 1015,3 hPa 0,0 l/m 0,0 km/h SO -0,8 C 1,6 C 0,0 km/h
21.03.2015 03:00 2,6 C 85 % 1014,7 hPa 0,0 l/m 0,0 km/h SO 0,3 C 2,6 C 0,0 km/h
21.03.2015 04:00 2,5 C 85 % 1014,7 hPa 0,0 l/m 0,0 km/h SO 0,2 C 2,5 C 0,0 km/h
21.03.2015 05:00 3,4 C 85 % 1014,7 hPa 0,0 l/m 0,0 km/h O 1,1 C 3,4 C 0,0 km/h
21.03.2015 06:00 3,9 C 85 % 1015,0 hPa 0,0 l/m 0,0 km/h O 1,6 C 3,9 C 0,0 km/h
21.03.2015 07:00 4,9 C 84 % 1015,1 hPa 0,0 l/m 0,0 km/h SO 2,4 C 4,9 C 0,0 km/h
21.03.2015 08:00 6,6 C 82 % 1014,7 hPa 0,0 l/m 0,0 km/h SO 3,8 C 6,6 C 0,0 km/h
21.03.2015 09:00 9,9 C 76 % 1014,3 hPa 0,0 l/m 0,0 km/h N-NW 5,9 C 9,9 C 0,0 km/h
21.03.2015 10:00 14,2 C 63 % 1014,2 hPa 0,0 l/m 0,0 km/h W 7,3 C 14,2 C 0,0 km/h
21.03.2015 11:00 15,8 C 56 % 1013,9 hPa 0,0 l/m 0,0 km/h SW 7,0 C 15,8 C 0,0 km/h
21.03.2015 12:00 15,2 C 54 % 1013,6 hPa 0,0 l/m 0,0 km/h N 6,0 C 15,2 C 0,0 km/h
21.03.2015 13:00 15,9 C 50 % 1013,0 hPa 0,0 l/m 0,0 km/h N-NO 5,5 C 15,9 C 0,0 km/h
21.03.2015 14:00 13,6 C 53 % 1012,8 hPa 0,0 l/m 17,5 km/h N-NO 4,2 C 8,7 C 9,7 km/h
21.03.2015 15:00 12,9 C 47 % 1012,9 hPa 0,0 l/m 14,9 km/h NO 1,9 C 8,7 C 8,3 km/h
21.03.2015 16:00 10,5 C 58 % 1013,3 hPa 0,0 l/m 18,8 km/h N-NO 2,6 C 4,3 C 10,4 km/h
21.03.2015 17:00 9,6 C 63 % 1013,6 hPa 0,0 l/m 1,3 km/h N-NO 2,9 C 9,6 C 0,7 km/h
21.03.2015 18:00 8,5 C 64 % 1014,0 hPa 0,0 l/m 0,0 km/h N-NO 2,1 C 8,5 C 0,0 km/h
21.03.2015 19:00 7,8 C 66 % 1014,7 hPa 0,0 l/m 0,0 km/h N-NO 1,9 C 7,8 C 0,0 km/h
21.03.2015 20:00 7,3 C 70 % 1015,3 hPa 0,0 l/m 0,0 km/h N-NO 2,2 C 7,3 C 0,0 km/h
21.03.2015 21:00 6,3 C 72 % 1015,6 hPa 0,0 l/m 0,0 km/h N-NO 1,6 C 6,3 C 0,0 km/h
21.03.2015 22:00 3,8 C 76 % 1015,4 hPa 0,0 l/m 0,0 km/h NO -0,0 C 3,8 C 0,0 km/h
21.03.2015 23:00 1,6 C 79 % 1015,6 hPa 0,0 l/m 0,0 km/h O-NO -1,6 C 1,6 C 0,0 km/h
22.03.2015 00:00 2,8 C 82 % 1015,5 hPa 0,0 l/m 0,0 km/h O-NO 0,0 C 2,8 C 0,0 km/h
22.03.2015 01:00 3,6 C 82 % 1015,5 hPa 0,0 l/m 0,0 km/h O-NO 0,8 C 3,6 C 0,0 km/h
22.03.2015 02:00 3,8 C 82 % 1015,5 hPa 0,0 l/m 0,0 km/h O-NO 1,0 C 3,8 C 0,0 km/h
22.03.2015 03:00 3,0 C 83 % 1015,3 hPa 0,0 l/m 0,0 km/h O-NO 0,4 C 3,0 C 0,0 km/h
22.03.2015 04:00 3,3 C 84 % 1015,2 hPa 0,0 l/m 0,0 km/h N-NO 0,9 C 3,3 C 0,0 km/h
22.03.2015 05:00 5,0 C 81 % 1015,4 hPa 0,0 l/m 0,0 km/h N 2,0 C 5,0 C 0,0 km/h
22.03.2015 06:00 5,2 C 78 % 1015,3 hPa 0,0 l/m 0,0 km/h N-NO 1,7 C 5,2 C 0,0 km/h
22.03.2015 07:00 6,1 C 73 % 1015,7 hPa 0,0 l/m 0,0 km/h NO 1,6 C 6,1 C 0,0 km/h
22.03.2015 08:00 7,1 C 64 % 1015,9 hPa 0,0 l/m 0,0 km/h N-NO 0,8 C 7,1 C 0,0 km/h
22.03.2015 09:00 9,5 C 59 % 1015,8 hPa 0,0 l/m 0,0 km/h N 1,9 C 9,5 C 0,0 km/h
22.03.2015 10:00 13,5 C 50 % 1015,6 hPa 0,0 l/m 13,6 km/h O 3,3 C 9,9 C 7,6 km/h
22.03.2015 11:00 11,7 C 53 % 1015,2 hPa 0,0 l/m 0,0 km/h NO 2,4 C 11,7 C 0,0 km/h
22.03.2015 12:00 11,8 C 54 % 1014,9 hPa 0,0 l/m 0,0 km/h N-NO 2,8 C 11,8 C 0,0 km/h
22.03.2015 13:00 11,2 C 56 % 1014,6 hPa 0,0 l/m 0,6 km/h N-NO 2,8 C 11,2 C 0,4 km/h
22.03.2015 14:00 10,1 C 58 % 1014,6 hPa 0,0 l/m 0,0 km/h NO 2,2 C 10,1 C 0,0 km/h
22.03.2015 15:00 9,4 C 62 % 1014,9 hPa 0,0 l/m 0,0 km/h N-NO 2,5 C 9,4 C 0,0 km/h
22.03.2015 16:00 9,9 C 62 % 1015,0 hPa 0,0 l/m 0,0 km/h NO 3,0 C 9,9 C 0,0 km/h
22.03.2015 17:00 9,2 C 63 % 1015,5 hPa 0,0 l/m 0,0 km/h SO 2,5 C 9,2 C 0,0 km/h
22.03.2015 18:00 8,4 C 64 % 1015,9 hPa 0,0 l/m 0,0 km/h SO 2,0 C 8,4 C 0,0 km/h
22.03.2015 19:00 8,1 C 65 % 1016,5 hPa 0,0 l/m 0,0 km/h O-NO 1,9 C 8,1 C 0,0 km/h
22.03.2015 20:00 7,6 C 67 % 1017,0 hPa 0,0 l/m 0,0 km/h NO 1,9 C 7,6 C 0,0 km/h
22.03.2015 21:00 6,9 C 69 % 1016,7 hPa 0,0 l/m 0,0 km/h SO 1,6 C 6,9 C 0,0 km/h
22.03.2015 22:00 5,8 C 73 % 1016,5 hPa 0,0 l/m 0,0 km/h SO 1,3 C 5,8 C 0,0 km/h
22.03.2015 23:00 5,3 C 75 % 1016,5 hPa 0,0 l/m 0,0 km/h NO 1,2 C 5,3 C 0,0 km/h
Min-Datum _ 20.03.15 17.03.15 21.03.15 - 16.03.15 - 16.03.15 20.03.15 16.03.15
_ Min-Zeit 05:52 16:52 14:52 - 00:52 - 02:52 05:52 00:52
Minimum _ -0,8 C 37 % 1012,8 hPa - 0,0 km/h - -3,1 C -0,8 C 0,0 km/h
Max-Datum _ 17.03.15 16.03.15 19.03.15 16.03.15 21.03.15 - 18.03.15 17.03.15 21.03.15
_ Max-Zeit 15:52 06:52 10:52 00:52 16:52 - 10:52 15:52 16:52
Maximum _ 23,9 C 86 % 1022,4 hPa 0,0 l/m 18,8 km/h
N-NO
- 10,4 C 23,9 C 10,4 km/h
N-NO
Durchschnitt _ 8,6 C 70 % 1018,4 hPa #0,0 l/m 0,9 km/h O-NO 2,9 C 8,4 C 0,5 km/h
www.sexauwetter.de